Nogales

Airport
ICAO code: 
KOLS
Summary
ICAO Region: 
NAM
Territory: 
Location: 
Nogales, Santa Cruz County, Arizona,
Coordinates: 
Aerial View: 
31° 25' 4.788" N, 110° 50' 58.312" W
Airport CFIT: 
Altimeter Temperature Error Correction
Airport RE: 
Hot and High Operations
Metar
Observation
KOLS 020854Z AUTO 00000KT 10SM BKN080 10/03 A3019 RMK AO2 SLP174 T01000033 52000
Station
Nogales, Nogales International Airport
Date/Time
2021-12-02 08:54:00
Wind direction
Wind speed
00 kts
Lowest cloud amount
broken clouds
Temperature
10°C
Dew point
3.3°C
Humidity
63%
Weather condition
n/a

Description

Nogales International Airport is a county-owned public-use airport located 7 nm northeast of the central business district of Nogales, a city in Santa Cruz County, Arizona, United States.

Climatology

Cold Semi-arid climate (Köppen climate classification BSk). - Hot, sometimes extremely hot summers and cold, sometimes very cold winters. Some snowfall during the winter. Areas featuring cold semi-arid climates are sometimes subject to major temperature swings during a 24 hour period.

Runways

Designator Length Width Surface Rops
3/21 2194 27 ASP No/No
Airport map: 
Aerial View: 

Accidents and Serious Incidents at or in the vicinity of KOLS

SKYbrary Partners:

Safety knowledge contributed by: